This is the latest recevied weather packets stored in our database for station/object WX7FGZ-5. If no packets are shown the sender has not sent any weather packets the latest 10 day(s).
| Time | Temp. | Humidity | Pressure | Rain* | Wind** | Luminosity | Snow |
|---|---|---|---|---|---|---|---|
| 1777355640 | 1.11° C | 53% | 1021.2 hPa | 0 mm | - | 0 W/m² | - |
| 1777355040 | 1.67° C | 51% | 1021.2 hPa | 0 mm | - | 0 W/m² | - |
| 1777354744 | 2.22° C | 50% | 1021.1 hPa | 0 mm | - | 0 W/m² | - |
| 1777354440 | 3.33° C | 46% | 1021.1 hPa | 0 mm | - | 0 W/m² | - |
| 1777354139 | 3.89° C | 46% | 1021.1 hPa | 0 mm | - | 0 W/m² | - |
| 1777353101 | 2.78° C | 46% | 1021.2 hPa | 0 mm | - | 0 W/m² | - |
| 1777352839 | 2.22° C | 48% | 1021.2 hPa | 0 mm | - | 0 W/m² | - |
| 1777352501 | 2.22° C | 48% | 1021.2 hPa | 0 mm | - | 0 W/m² | - |
| 1777351902 | 2.22° C | 47% | 1021.2 hPa | 0 mm | - | 0 W/m² | - |
| 1777351839 | 2.22° C | 47% | 1021.2 hPa | 0 mm | - | 0 W/m² | - |
| 1777351602 | 2.22° C | 47% | 1021.2 hPa | 0 mm | - | 0 W/m² | - |
| 1777351301 | 1.67° C | 47% | 1021 hPa | 0 mm | - | 0 W/m² | - |
| 1777350402 | 2.22° C | 45% | 1020.8 hPa | 0 mm | - | 0 W/m² | - |
| 1777350101 | 2.78° C | 44% | 1020.8 hPa | 0 mm | - | 0 W/m² | - |
| 1777349802 | 2.78° C | 43% | 1020.7 hPa | 0 mm | - | 0 W/m² | - |
| 1777349501 | 3.33° C | 43% | 1020.6 hPa | 0 mm | - | 0 W/m² | - |
| 1777349201 | 3.33° C | 43% | 1020.3 hPa | 0 mm | - | 0 W/m² | - |
| 1777348902 | 3.33° C | 42% | 1020.3 hPa | 0 mm | - | 0 W/m² | - |
| 1777348600 | 4.44° C | 40% | 1020.2 hPa | 0 mm | - | 0 W/m² | - |
| 1777348302 | 4.44° C | 40% | 1020.2 hPa | 0 mm | - | 0 W/m² | - |
| 1777348001 | 5° C | 38% | 1020 hPa | 0 mm | - | 0 W/m² | - |
| 1777347101 | 5° C | 36% | 1019.6 hPa | 0 mm | - | 0 W/m² | - |
| 1777346802 | 5° C | 36% | 1019.5 hPa | 0 mm | - | 0 W/m² | - |
| 1777346501 | 5° C | 37% | 1019.4 hPa | 0 mm | - | 0 W/m² | - |
| 1777345601 | 5.56° C | 35% | 1019.3 hPa | 0 mm | - | 0 W/m² | - |
* Rain latest hour (hover to see other rain measurements)
** Current wind speed in m/s (hover to see current wind gust speed)